createdAt,value
2019-01-05T00:00:47.411Z,100436.17
2019-01-05T00:03:33.416Z,100439.01
2019-01-05T00:06:19.465Z,100421.06
2019-01-05T00:11:53.097Z,100419.57
2019-01-05T00:20:31.779Z,100424.11
2019-01-05T00:26:18.738Z,100427.69
2019-01-05T00:35:13.200Z,100413.55
2019-01-05T00:44:01.560Z,100409.41
2019-01-05T00:52:48.932Z,100412.38
2019-01-05T00:58:28.423Z,100405.21
2019-01-05T01:01:14.629Z,100404.76
2019-01-05T01:04:00.688Z,100404.63
2019-01-05T01:06:46.698Z,100395.09
2019-01-05T01:09:32.741Z,100393.86
2019-01-05T01:15:06.485Z,100388.64
2019-01-05T01:17:52.493Z,100388.84
2019-01-05T01:20:38.539Z,100387.00
2019-01-05T01:26:30.407Z,100386.84
2019-01-05T01:29:16.516Z,100382.87
2019-01-05T01:34:56.093Z,100375.29
2019-01-05T01:40:43.268Z,100369.25
2019-01-05T01:43:29.374Z,100367.81
2019-01-05T01:46:15.608Z,100366.30
2019-01-05T01:49:01.632Z,100362.87
2019-01-05T01:54:21.660Z,100352.83
2019-01-05T02:00:01.330Z,100336.75
2019-01-05T02:21:44.464Z,100307.44
2019-01-05T02:25:10.000Z,100299.70
2019-01-05T02:28:17.578Z,100304.60
2019-01-05T02:37:38.774Z,100277.95
2019-01-05T02:41:04.293Z,100281.06
2019-01-05T02:44:11.893Z,100274.06
2019-01-05T02:47:19.447Z,100264.81
2019-01-05T02:54:01.139Z,100270.65
2019-01-05T03:00:00.936Z,100264.44
2019-01-05T03:06:40.013Z,100273.65
2019-01-05T03:10:05.524Z,100279.64
2019-01-05T03:13:13.208Z,100276.62
2019-01-05T03:22:55.030Z,100275.75
2019-01-05T03:26:02.596Z,100277.70
2019-01-05T03:29:28.152Z,100266.36
2019-01-05T03:32:53.664Z,100263.46
2019-01-05T03:36:19.207Z,100265.34
2019-01-05T03:46:05.413Z,100247.67
2019-01-05T03:49:30.924Z,100251.25
2019-01-05T03:52:56.468Z,100249.43
2019-01-05T03:59:51.865Z,100239.05
2019-01-05T04:06:30.612Z,100249.53
2019-01-05T04:09:38.178Z,100246.53
2019-01-05T04:12:45.760Z,100240.30
2019-01-05T04:19:31.180Z,100233.70
2019-01-05T04:25:52.485Z,100229.85
2019-01-05T04:29:18.000Z,100229.02
2019-01-05T04:32:25.596Z,100232.62
2019-01-05T04:35:51.119Z,100227.16
2019-01-05T04:38:58.708Z,100226.55
2019-01-05T04:42:06.263Z,100223.37
2019-01-05T04:45:13.858Z,100216.67
2019-01-05T05:00:54.611Z,100207.98
2019-01-05T05:04:20.127Z,100205.47
2019-01-05T05:11:05.639Z,100201.83
2019-01-05T05:17:32.144Z,100205.02
2019-01-05T05:20:57.658Z,100204.55
2019-01-05T05:30:22.378Z,100203.89
2019-01-05T05:36:48.665Z,100190.22
2019-01-05T05:40:14.185Z,100192.21
2019-01-05T05:43:39.724Z,100192.31
2019-01-05T05:46:47.290Z,100197.38
2019-01-05T05:49:54.886Z,100191.92
2019-01-05T05:56:32.593Z,100198.50
2019-01-05T05:59:58.098Z,100198.41
2019-01-05T06:03:23.637Z,100190.33
2019-01-05T06:06:49.148Z,100200.28
2019-01-05T06:10:14.685Z,100200.01
2019-01-05T06:16:54.012Z,100197.22
2019-01-05T06:20:01.854Z,100201.55
2019-01-05T06:26:26.080Z,100199.27
2019-01-05T06:29:33.634Z,100201.51
2019-01-05T06:32:59.188Z,100199.16
2019-01-05T06:36:06.745Z,100198.30
2019-01-05T06:39:14.327Z,100195.20
2019-01-05T06:42:39.840Z,100197.15
2019-01-05T06:46:05.376Z,100199.39
2019-01-05T06:53:01.020Z,100192.80
2019-01-05T06:56:26.535Z,100196.81
2019-01-05T06:59:52.094Z,100195.55
2019-01-05T07:06:13.259Z,100178.00
2019-01-05T07:09:38.777Z,100174.78
2019-01-05T07:12:46.371Z,100159.63
2019-01-05T07:19:26.035Z,100141.67
2019-01-05T07:22:51.548Z,100139.49
2019-01-05T07:29:15.621Z,100143.00
2019-01-05T07:32:23.185Z,100142.45
2019-01-05T07:35:30.787Z,100153.56
2019-01-05T07:45:08.135Z,100154.89
2019-01-05T07:48:33.646Z,100154.55
2019-01-05T07:54:57.478Z,100149.92
2019-01-05T07:58:05.041Z,100148.44
2019-01-05T08:01:12.638Z,100142.45
2019-01-05T08:07:51.457Z,100137.66
2019-01-05T08:14:17.275Z,100131.21
2019-01-05T08:17:42.808Z,100123.47
2019-01-05T08:21:08.347Z,100123.08
2019-01-05T08:24:15.911Z,100118.29
2019-01-05T08:27:41.445Z,100116.45
2019-01-05T08:37:21.421Z,100111.55
2019-01-05T08:46:46.004Z,100093.38
2019-01-05T08:56:25.850Z,100095.55
2019-01-05T08:59:33.407Z,100083.17
2019-01-05T09:02:58.956Z,100088.29
2019-01-05T09:06:06.519Z,100091.97
2019-01-05T09:09:32.074Z,100087.59
2019-01-05T09:12:57.633Z,100080.64
2019-01-05T09:16:23.171Z,100072.15
2019-01-05T09:23:00.724Z,100069.72
2019-01-05T09:32:25.769Z,100053.13
2019-01-05T09:42:05.211Z,100019.94
2019-01-05T09:45:30.735Z,100012.92
2019-01-05T09:48:38.333Z,100006.80
2019-01-05T09:52:03.844Z,99993.50
2019-01-05T09:55:29.389Z,99978.73
2019-01-05T09:58:54.897Z,99975.42
2019-01-05T10:02:20.446Z,99973.33
2019-01-05T10:12:00.377Z,99945.85
2019-01-05T10:14:58.954Z,99937.17
2019-01-05T10:18:24.602Z,99933.19
2019-01-05T10:21:32.174Z,99920.74
2019-01-05T10:24:57.813Z,99905.80
2019-01-05T10:31:36.970Z,99891.94
2019-01-05T10:41:04.886Z,99869.80
2019-01-05T10:44:12.448Z,99857.55
2019-01-05T10:47:20.042Z,99850.21
2019-01-05T11:00:17.497Z,99829.75
2019-01-05T11:03:43.014Z,99832.55
2019-01-05T11:06:50.625Z,99819.45
2019-01-05T11:10:16.135Z,99803.27
2019-01-05T11:13:41.699Z,99813.57
2019-01-05T11:19:53.190Z,99803.83
2019-01-05T11:22:52.251Z,99799.15
2019-01-05T11:25:59.980Z,99791.34
2019-01-05T11:29:25.545Z,99794.47
2019-01-05T11:33:00.314Z,99788.40
2019-01-05T11:39:58.435Z,99781.91
2019-01-05T11:43:23.943Z,99774.20
2019-01-05T11:46:31.553Z,99770.97
2019-01-05T11:53:12.121Z,99758.44
2019-01-05T11:59:36.265Z,99739.59
2019-01-05T12:09:15.992Z,99741.92
2019-01-05T12:12:14.619Z,99738.27
2019-01-05T12:15:22.228Z,99731.53
2019-01-05T12:21:48.110Z,99713.31
2019-01-05T12:24:55.685Z,99724.79
2019-01-05T12:27:40.068Z,99716.38
2019-01-05T12:31:05.581Z,99715.52
2019-01-05T12:34:31.120Z,99704.83
2019-01-05T12:41:10.729Z,99696.33
2019-01-05T12:44:18.302Z,99696.21
2019-01-05T12:47:25.897Z,99692.77
2019-01-05T12:50:51.413Z,99687.98
2019-01-05T12:54:16.952Z,99683.91
2019-01-05T13:03:56.437Z,99673.16
2019-01-05T13:07:21.952Z,99666.95
2019-01-05T13:14:07.328Z,99665.01
2019-01-05T13:17:14.913Z,99656.36
2019-01-05T13:20:22.556Z,99650.63
2019-01-05T13:23:48.062Z,99646.73
2019-01-05T13:27:22.262Z,99647.73
2019-01-05T13:33:48.430Z,99639.28
2019-01-05T13:40:15.160Z,99640.08
2019-01-05T13:46:39.446Z,99643.72
2019-01-05T13:53:17.055Z,99636.33
2019-01-05T13:59:17.135Z,99631.53
2019-01-05T14:02:03.202Z,99630.04
2019-01-05T14:04:49.289Z,99629.33
2019-01-05T14:07:35.292Z,99621.10
2019-01-05T14:10:21.443Z,99616.72
2019-01-05T14:13:45.678Z,99608.41
2019-01-05T14:16:13.778Z,99605.45
2019-01-05T14:18:53.812Z,99603.24
2019-01-05T14:21:27.467Z,99602.99
2019-01-05T14:24:11.913Z,99600.55
2019-01-05T14:26:42.733Z,99611.42
2019-01-05T14:29:28.698Z,99602.44
2019-01-05T14:31:56.869Z,99607.23
2019-01-05T14:34:24.933Z,99603.40
2019-01-05T14:37:09.656Z,99600.77
2019-01-05T14:39:54.608Z,99603.23
2019-01-05T14:42:28.253Z,99602.29
2019-01-05T14:44:59.204Z,99597.47
2019-01-05T14:47:43.535Z,99591.55
2019-01-05T14:50:14.105Z,99590.56
2019-01-05T14:52:45.011Z,99595.24
2019-01-05T14:55:13.132Z,99593.16
2019-01-05T15:01:02.666Z,99595.90
2019-01-05T15:03:46.102Z,99594.45
2019-01-05T15:06:16.828Z,99595.80
2019-01-05T15:08:44.893Z,99591.14
2019-01-05T15:11:28.067Z,99593.37
2019-01-05T15:14:07.958Z,99591.70
2019-01-05T15:16:38.811Z,99594.21
2019-01-05T15:19:09.652Z,99588.11
2019-01-05T15:21:55.744Z,99584.64
2019-01-05T15:24:29.643Z,99582.87
2019-01-05T15:27:10.150Z,99587.92
2019-01-05T15:29:54.726Z,99586.12
2019-01-05T15:32:22.831Z,99587.69
2019-01-05T15:34:50.900Z,99582.99
2019-01-05T15:37:21.914Z,99583.13
2019-01-05T15:39:53.026Z,99584.22
2019-01-05T15:42:39.124Z,99589.98
2019-01-05T15:45:18.852Z,99584.06
2019-01-05T15:48:03.527Z,99588.66
2019-01-05T15:53:37.148Z,99592.98
2019-01-05T15:56:05.247Z,99581.80
2019-01-05T15:58:33.313Z,99580.00
2019-01-05T16:01:18.050Z,99585.05
2019-01-05T16:04:02.722Z,99575.99
2019-01-05T16:06:33.717Z,99576.13
2019-01-05T16:09:14.134Z,99584.80
2019-01-05T16:11:42.210Z,99582.73
2019-01-05T16:14:21.978Z,99578.17
2019-01-05T16:16:53.078Z,99576.13
2019-01-05T16:19:30.296Z,99577.64
2019-01-05T16:22:08.625Z,99583.27
2019-01-05T16:24:57.046Z,99583.61
2019-01-05T16:27:26.253Z,99580.41
2019-01-05T16:30:09.394Z,99582.50
2019-01-05T16:32:53.922Z,99579.64
2019-01-05T16:35:39.849Z,99581.09
2019-01-05T16:38:19.638Z,99575.44
2019-01-05T16:40:54.040Z,99579.94
2019-01-05T16:43:22.119Z,99573.73
2019-01-05T16:45:55.754Z,99575.91
2019-01-05T16:48:40.448Z,99570.75
2019-01-05T16:51:24.693Z,99568.61
2019-01-05T16:54:09.127Z,99565.72
2019-01-05T16:56:53.512Z,99559.21
2019-01-05T16:59:21.610Z,99555.89
2019-01-05T17:01:58.692Z,99556.86
2019-01-05T17:04:32.897Z,99557.32
2019-01-05T17:07:18.055Z,99554.83
2019-01-05T17:10:01.469Z,99548.61
2019-01-05T17:12:32.532Z,99554.36
2019-01-05T17:15:06.426Z,99550.34
2019-01-05T17:17:37.549Z,99556.48
2019-01-05T17:20:13.438Z,99550.61
2019-01-05T17:22:58.016Z,99548.39
2019-01-05T17:25:37.946Z,99550.19
2019-01-05T17:28:24.049Z,99540.98
2019-01-05T17:31:08.919Z,99542.05
2019-01-05T17:33:52.345Z,99537.38
2019-01-05T17:36:24.027Z,99541.45
2019-01-05T17:39:09.081Z,99539.55
2019-01-05T17:41:53.512Z,99539.89
2019-01-05T17:44:37.975Z,99536.70
2019-01-05T17:47:06.077Z,99532.98
2019-01-05T17:49:48.933Z,99530.81
2019-01-05T17:52:17.035Z,99527.91
2019-01-05T17:55:01.564Z,99519.42
2019-01-05T17:57:46.503Z,99526.31
2019-01-05T18:00:31.061Z,99524.20
2019-01-05T18:03:15.425Z,99522.64
2019-01-05T18:05:52.093Z,99517.14
2019-01-05T18:08:20.196Z,99515.24
2019-01-05T18:11:00.323Z,99516.43
2019-01-05T18:13:34.417Z,99514.08
2019-01-05T18:16:20.428Z,99516.47
2019-01-05T18:19:03.317Z,99512.55
2019-01-05T18:21:45.336Z,99513.66
2019-01-05T18:24:28.825Z,99508.89
2019-01-05T18:26:56.880Z,99507.64
2019-01-05T18:29:41.614Z,99506.51
2019-01-05T18:32:12.197Z,99503.14
2019-01-05T18:34:49.444Z,99502.84
2019-01-05T18:37:32.575Z,99503.73
2019-01-05T18:40:03.466Z,99494.40
2019-01-05T18:42:34.047Z,99491.75
2019-01-05T18:45:11.133Z,99488.70
2019-01-05T18:47:44.961Z,99487.92
2019-01-05T18:50:29.521Z,99481.20
2019-01-05T18:52:57.553Z,99480.98
2019-01-05T18:55:25.652Z,99478.77
2019-01-05T18:58:10.286Z,99477.83
2019-01-05T19:00:41.096Z,99476.13
2019-01-05T19:03:20.984Z,99474.06
2019-01-05T19:05:54.808Z,99468.22
2019-01-05T19:08:39.286Z,99463.58
2019-01-05T19:11:23.701Z,99462.33
2019-01-05T19:13:54.333Z,99458.92
2019-01-05T19:16:25.163Z,99458.27
2019-01-05T19:19:09.886Z,99456.34
2019-01-05T19:21:40.929Z,99451.44
2019-01-05T19:24:11.909Z,99450.27
2019-01-05T19:26:56.804Z,99457.84
2019-01-05T19:29:24.915Z,99454.12
2019-01-05T19:32:04.791Z,99448.56
2019-01-05T19:34:52.808Z,99453.39
2019-01-05T19:37:37.672Z,99455.94
2019-01-05T19:43:16.731Z,99445.30
2019-01-05T19:45:56.536Z,99445.80
2019-01-05T19:48:30.443Z,99440.21
2019-01-05T19:51:04.647Z,99435.91
2019-01-05T19:53:32.736Z,99440.06
2019-01-05T19:56:06.708Z,99430.41
2019-01-05T19:58:34.784Z,99434.53
2019-01-05T20:01:17.766Z,99428.86
2019-01-05T20:03:45.838Z,99418.66
2019-01-05T20:06:30.764Z,99414.89
2019-01-05T20:09:01.367Z,99417.67
2019-01-05T20:11:35.339Z,99410.67
2019-01-05T20:14:19.895Z,99411.34
2019-01-05T20:16:54.038Z,99407.31
2019-01-05T20:19:36.920Z,99401.52
2019-01-05T20:22:10.768Z,99401.28
2019-01-05T20:24:55.145Z,99404.09
2019-01-05T20:30:19.251Z,99399.02
2019-01-05T20:33:03.987Z,99397.30
2019-01-05T20:35:34.565Z,99387.84
2019-01-05T20:38:02.687Z,99395.12
2019-01-05T20:40:47.103Z,99384.94
2019-01-05T20:43:15.173Z,99384.83
2019-01-05T20:46:01.130Z,99377.70
2019-01-05T20:51:31.492Z,99374.14
2019-01-05T20:54:15.965Z,99373.47
2019-01-05T20:56:59.358Z,99368.69
2019-01-05T20:59:27.410Z,99369.34
2019-01-05T21:02:07.457Z,99362.38
2019-01-05T21:04:39.169Z,99359.20
2019-01-05T21:07:19.353Z,99353.48
2019-01-05T21:09:47.414Z,99355.84
2019-01-05T21:12:30.559Z,99349.78
2019-01-05T21:15:15.757Z,99343.27
2019-01-05T21:17:57.688Z,99341.02
2019-01-05T21:20:43.646Z,99337.29
2019-01-05T21:23:28.092Z,99335.12
2019-01-05T21:26:01.960Z,99330.30
2019-01-05T21:28:30.141Z,99322.73
2019-01-05T21:30:58.582Z,99319.89
2019-01-05T21:33:43.311Z,99309.03
2019-01-05T21:39:34.686Z,99306.22
2019-01-05T21:42:05.673Z,99307.11
2019-01-05T21:44:42.749Z,99302.98
2019-01-05T21:47:16.619Z,99298.77
2019-01-05T21:49:44.715Z,99295.28
2019-01-05T21:52:24.783Z,99294.98
2019-01-05T21:55:09.743Z,99294.70
2019-01-05T21:57:44.832Z,99299.25
2019-01-05T22:00:30.478Z,99287.33
2019-01-05T22:06:15.535Z,99277.65
2019-01-05T22:08:59.976Z,99271.34
2019-01-05T22:11:36.905Z,99260.52
2019-01-05T22:14:20.352Z,99256.01
2019-01-05T22:16:51.246Z,99250.48
2019-01-05T22:19:31.493Z,99249.55
2019-01-05T22:22:14.536Z,99241.70
2019-01-05T22:24:42.596Z,99236.77
2019-01-05T22:27:27.794Z,99230.73
2019-01-05T22:30:02.136Z,99231.13
2019-01-05T22:32:46.508Z,99222.78
2019-01-05T22:35:26.189Z,99211.29
2019-01-05T22:38:10.881Z,99212.67
2019-01-05T22:40:49.009Z,99210.89
2019-01-05T22:43:27.615Z,99209.77
2019-01-05T22:46:07.744Z,99205.98
2019-01-05T22:48:54.177Z,99207.67
2019-01-05T22:51:38.618Z,99192.35
2019-01-05T22:54:23.580Z,99199.23
2019-01-05T22:56:54.156Z,99185.21
2019-01-05T22:59:31.268Z,99186.15
2019-01-05T23:02:16.019Z,99183.69
2019-01-05T23:04:44.112Z,99177.92
2019-01-05T23:07:17.956Z,99182.20
2019-01-05T23:10:02.621Z,99177.63
2019-01-05T23:12:39.329Z,99179.19
2019-01-05T23:15:07.430Z,99176.97
2019-01-05T23:17:52.003Z,99176.77
2019-01-05T23:20:36.441Z,99174.81
2019-01-05T23:23:10.244Z,99176.28
2019-01-05T23:25:38.340Z,99164.05
2019-01-05T23:28:06.396Z,99163.45
2019-01-05T23:30:34.467Z,99159.74
2019-01-05T23:33:08.381Z,99157.73
2019-01-05T23:35:39.457Z,99152.31
2019-01-05T23:38:19.347Z,99155.08
2019-01-05T23:41:04.073Z,99155.66
2019-01-05T23:43:48.536Z,99158.30
2019-01-05T23:46:28.437Z,99161.75
2019-01-05T23:49:05.094Z,99166.32
2019-01-05T23:51:41.983Z,99163.42
2019-01-05T23:54:10.071Z,99162.74
2019-01-05T23:56:53.181Z,99153.87
2019-01-05T23:59:21.277Z,99150.77
